Time;durP1;ratioP1;P1;durP2;ratioP2;P2;SDS_P1;SDS_P2;PMS_P1;PMS_P2;Temp;Humidity;BMP_temperature;BMP_pressure;BME280_temperature;BME280_humidity;BME280_pressure;Samples;Min_cycle;Max_cycle;Signal;HPM_P1;HPM_P2
2022/05/21 00:00:15;;;;;;;3.55;1.30;;;10.70;71.60;;;;;;4135502;28;20030;-84
2022/05/21 00:02:16;;;;;;;4.97;1.40;;;10.70;71.60;;;;;;4140339;28;20783;-84
2022/05/21 00:04:16;;;;;;;4.13;1.50;;;10.70;71.60;;;;;;4143234;28;20030;-82
2022/05/21 00:06:17;;;;;;;1.80;1.02;;;10.60;71.50;;;;;;4144349;28;20132;-85
2022/05/21 00:08:18;;;;;;;1.80;1.02;;;10.60;71.50;;;;;;4129922;28;20056;-85
2022/05/21 00:10:21;;;;;;;2.80;0.93;;;10.60;71.50;;;;;;4146366;28;21542;-85
2022/05/21 00:12:22;;;;;;;2.30;1.17;;;10.50;71.40;;;;;;4149099;28;20037;-84
2022/05/21 00:14:24;;;;;;;3.78;0.98;;;10.50;71.50;;;;;;4148849;28;20053;-85
2022/05/21 00:16:24;;;;;;;1.75;1.00;;;10.50;71.60;;;;;;4148923;28;20030;-83
2022/05/21 00:18:25;;;;;;;1.40;0.77;;;10.50;71.40;;;;;;4147467;28;20065;-83
2022/05/21 00:22:45;;;;;;;2.20;1.10;;;10.40;71.00;;;;;;4123478;28;20094;-83
2022/05/21 00:24:46;;;;;;;3.65;1.13;;;10.40;71.10;;;;;;4141434;28;20042;-84
2022/05/21 00:26:47;;;;;;;3.33;1.17;;;10.40;71.20;;;;;;4145588;28;20030;-84
2022/05/21 00:28:49;;;;;;;3.70;0.90;;;10.30;71.20;;;;;;4144280;28;20660;-85
2022/05/21 00:30:50;;;;;;;2.83;0.90;;;10.30;71.30;;;;;;4138285;28;20049;-85
2022/05/21 00:32:51;;;;;;;6.47;1.05;;;10.30;71.40;;;;;;4141413;28;20030;-84
2022/05/21 00:34:52;;;;;;;2.45;0.80;;;10.30;71.50;;;;;;4143241;28;20033;-85
2022/05/21 00:36:52;;;;;;;3.20;0.95;;;10.30;71.60;;;;;;4124529;28;20084;-84
2022/05/21 00:38:53;;;;;;;4.70;1.00;;;10.20;71.70;;;;;;4142200;28;20021;-84
2022/05/21 00:40:55;;;;;;;1.83;0.80;;;10.30;71.90;;;;;;4124236;28;20121;-85
2022/05/21 00:43:45;;;;;;;3.15;1.02;;;10.20;71.90;;;;;;4138602;28;20404;-84
2022/05/21 00:46:11;;;;;;;2.88;1.10;;;10.20;72.30;;;;;;4128397;28;20467;-84
2022/05/21 00:48:32;;;;;;;4.05;1.35;;;10.30;72.00;;;;;;4143558;28;20443;-86
2022/05/21 00:50:53;;;;;;;4.72;1.73;;;10.30;71.90;;;;;;4143670;28;20034;-85
2022/05/21 00:53:14;;;;;;;2.58;1.10;;;10.20;71.90;;;;;;4145629;28;20034;-85
2022/05/21 00:55:34;;;;;;;3.22;1.33;;;10.20;71.70;;;;;;4140155;28;20496;-85
2022/05/21 00:57:40;;;;;;;3.38;1.50;;;10.20;71.70;;;;;;4135612;28;20051;-84
2022/05/21 00:59:48;;;;;;;2.67;1.60;;;10.30;71.80;;;;;;4119495;28;20073;-85
2022/05/21 01:01:53;;;;;;;9.05;2.17;;;10.20;72.50;;;;;;4139563;28;20029;-84
2022/05/21 01:03:54;;;;;;;4.03;1.77;;;10.10;71.60;;;;;;4143331;28;20539;-85
2022/05/21 01:05:57;;;;;;;4.53;1.70;;;10.20;71.60;;;;;;4143541;28;20029;-86
2022/05/21 01:08:01;;;;;;;5.45;1.90;;;10.10;71.70;;;;;;4147807;28;20021;-84
2022/05/21 01:10:02;;;;;;;5.80;1.30;;;10.10;71.80;;;;;;4142340;28;20070;-84
2022/05/21 01:12:04;;;;;;;5.57;1.50;;;10.10;71.80;;;;;;4142775;28;20935;-85
2022/05/21 01:14:07;;;;;;;6.18;2.08;;;10.10;72.00;;;;;;4142069;28;20744;-85
2022/05/21 01:16:09;;;;;;;5.32;1.48;;;10.10;72.40;;;;;;4125689;28;20025;-85
2022/05/21 01:18:11;;;;;;;6.07;1.90;;;10.10;72.40;;;;;;4122198;28;20578;-85
2022/05/21 01:20:19;;;;;;;8.68;2.10;;;10.10;72.50;;;;;;4141715;28;20038;-85
2022/05/21 01:22:27;;;;;;;4.80;1.83;;;10.10;72.80;;;;;;4120995;28;21973;-85
2022/05/21 01:24:28;;;;;;;5.20;2.00;;;10.10;73.00;;;;;;4137414;28;21633;-84
2022/05/21 01:26:29;;;;;;;6.22;2.28;;;10.10;72.90;;;;;;4124341;28;20173;-85
2022/05/21 01:28:33;;;;;;;6.70;2.22;;;10.10;73.00;;;;;;4141429;28;20048;-84
2022/05/21 01:30:39;;;;;;;2.90;1.83;;;10.10;73.20;;;;;;4139516;28;20435;-85
2022/05/21 01:32:39;;;;;;;3.50;1.45;;;10.10;73.40;;;;;;4135974;28;20053;-85
2022/05/21 01:34:40;;;;;;;3.15;1.75;;;10.10;73.30;;;;;;4121557;28;20405;-85
2022/05/21 01:36:41;;;;;;;5.72;1.92;;;10.20;73.40;;;;;;4139983;28;20034;-84
2022/05/21 01:38:42;;;;;;;8.13;1.83;;;10.20;73.70;;;;;;4134836;28;20032;-85
2022/05/21 01:40:44;;;;;;;2.70;1.55;;;10.10;73.70;;;;;;4144462;28;20519;-84
2022/05/21 01:44:37;;;;;;;2.38;1.75;;;10.10;73.70;;;;;;4142426;28;20030;-84
2022/05/21 01:45:07;;;;;;;3.75;1.70;;;10.10;73.90;;;;;;4143296;28;20100;-85
2022/05/21 01:47:11;;;;;;;6.28;1.88;;;10.20;73.90;;;;;;4143716;28;20026;-85
2022/05/21 01:49:12;;;;;;;3.80;1.60;;;10.20;74.00;;;;;;4137809;28;20089;-84
2022/05/21 01:51:13;;;;;;;5.03;1.60;;;10.20;74.20;;;;;;4123043;28;20030;-84
2022/05/21 01:53:15;;;;;;;4.18;1.48;;;10.20;74.10;;;;;;4138466;28;20527;-85
2022/05/21 01:55:16;;;;;;;4.43;1.83;;;10.20;74.20;;;;;;4126165;28;20022;-85
2022/05/21 01:57:19;;;;;;;5.10;1.65;;;10.20;75.00;;;;;;4141148;28;20056;-85
2022/05/21 01:59:20;;;;;;;3.63;1.75;;;10.20;74.30;;;;;;4116827;28;20105;-85
2022/05/21 02:01:21;;;;;;;3.38;1.50;;;10.20;74.40;;;;;;4123065;28;20034;-85
2022/05/21 02:03:22;;;;;;;6.47;1.75;;;10.30;74.40;;;;;;4140357;28;20029;-83
2022/05/21 02:05:23;;;;;;;2.67;1.58;;;10.20;74.30;;;;;;4137410;28;20562;-85
2022/05/21 02:07:24;;;;;;;3.88;1.42;;;10.20;74.40;;;;;;4139992;28;20022;-84
2022/05/21 02:09:25;;;;;;;8.68;1.73;;;10.30;74.50;;;;;;4140240;28;20034;-85
2022/05/21 02:11:26;;;;;;;7.07;1.60;;;10.20;74.40;;;;;;4140686;28;20041;-85
2022/05/21 02:13:29;;;;;;;3.92;1.63;;;10.20;74.50;;;;;;4143058;28;20044;-85
2022/05/21 02:15:31;;;;;;;5.05;1.70;;;10.30;74.60;;;;;;4140718;28;20034;-84
2022/05/21 02:17:32;;;;;;;3.55;1.50;;;10.20;74.60;;;;;;4141514;28;20029;-84
2022/05/21 02:19:33;;;;;;;3.72;1.52;;;10.20;74.40;;;;;;4140277;28;20029;-84
2022/05/21 02:21:36;;;;;;;5.57;1.67;;;10.20;74.50;;;;;;4139086;28;20135;-85
2022/05/21 02:23:37;;;;;;;3.13;1.35;;;10.30;74.50;;;;;;4127565;28;20774;-84
2022/05/21 02:25:38;;;;;;;3.13;1.30;;;10.30;74.80;;;;;;4141575;28;20022;-85
2022/05/21 02:27:38;;;;;;;7.47;1.60;;;10.30;74.80;;;;;;4141219;28;20029;-84
2022/05/21 02:29:40;;;;;;;3.25;1.08;;;10.30;74.90;;;;;;4143751;28;20041;-85
2022/05/21 02:31:40;;;;;;;3.70;1.38;;;10.30;74.80;;;;;;4140876;28;20154;-84
2022/05/21 02:33:41;;;;;;;6.45;1.50;;;10.30;74.90;;;;;;4142336;28;20029;-84
2022/05/21 02:35:42;;;;;;;7.63;1.50;;;10.20;75.00;;;;;;4140292;28;20056;-85
2022/05/21 02:40:03;;;;;;;4.80;1.27;;;10.30;75.20;;;;;;4142418;28;20037;-85
2022/05/21 02:42:42;;;;;;;3.00;1.20;;;10.20;75.10;;;;;;4123559;28;20026;-84
2022/05/21 02:44:25;;;;;;;5.18;1.38;;;10.20;75.10;;;;;;4123332;28;20477;-85
2022/05/21 02:46:26;;;;;;;9.70;1.85;;;10.30;75.20;;;;;;4127035;28;20031;-85
2022/05/21 02:48:28;;;;;;;5.50;1.48;;;10.30;75.50;;;;;;4145944;28;20959;-85
2022/05/21 02:50:32;;;;;;;7.65;1.85;;;10.30;75.50;;;;;;4123245;28;20026;-83
2022/05/21 02:52:33;;;;;;;8.43;1.55;;;10.30;75.30;;;;;;4139644;28;20696;-84
2022/05/21 02:54:34;;;;;;;5.22;1.33;;;10.30;75.50;;;;;;4146136;28;20052;-84
2022/05/21 02:56:36;;;;;;;8.60;1.58;;;10.30;75.50;;;;;;4141281;28;20041;-84
2022/05/21 02:58:37;;;;;;;3.72;1.42;;;10.30;75.50;;;;;;4123110;28;20034;-84
2022/05/21 03:00:38;;;;;;;12.05;1.40;;;10.30;75.50;;;;;;4140044;28;20034;-84
2022/05/21 03:02:39;;;;;;;8.77;1.52;;;10.30;75.60;;;;;;4138526;28;20507;-84
2022/05/21 03:04:39;;;;;;;13.52;1.50;;;10.30;75.60;;;;;;4122913;28;20038;-84
2022/05/21 03:06:40;;;;;;;7.75;1.75;;;10.30;75.60;;;;;;4143873;28;20034;-84
2022/05/21 03:11:01;;;;;;;7.60;1.60;;;10.30;75.50;;;;;;4143565;28;20038;-83
2022/05/21 03:13:02;;;;;;;5.70;1.30;;;10.40;75.60;;;;;;4141880;28;20025;-84
2022/05/21 03:15:04;;;;;;;11.85;1.52;;;10.40;75.60;;;;;;4141188;28;20045;-84
2022/05/21 03:17:05;;;;;;;4.47;1.60;;;10.40;75.70;;;;;;4138353;28;20022;-84
2022/05/21 03:19:06;;;;;;;4.78;1.48;;;10.40;75.80;;;;;;4146144;28;20344;-84
2022/05/21 03:21:06;;;;;;;8.20;1.55;;;10.50;75.80;;;;;;4145176;28;20033;-84
2022/05/21 03:23:08;;;;;;;7.57;1.40;;;10.40;75.80;;;;;;4120283;28;20022;-84
2022/05/21 03:25:10;;;;;;;9.85;1.92;;;10.50;75.80;;;;;;4148366;28;20053;-84
2022/05/21 03:27:11;;;;;;;6.72;1.40;;;10.50;75.80;;;;;;4144559;28;20108;-84
2022/05/21 03:29:12;;;;;;;6.85;1.23;;;10.50;75.80;;;;;;4141066;28;20049;-84
2022/05/21 03:31:12;;;;;;;7.53;1.98;;;10.50;75.80;;;;;;4139409;28;20026;-84
2022/05/21 03:33:13;;;;;;;5.78;1.25;;;10.50;75.80;;;;;;4140701;28;20041;-84
2022/05/21 03:35:16;;;;;;;9.07;1.67;;;10.50;75.80;;;;;;4142185;28;20395;-83
2022/05/21 03:37:17;;;;;;;7.97;1.90;;;10.50;75.90;;;;;;4143019;28;20056;-84
2022/05/21 03:39:17;;;;;;;8.77;1.67;;;10.50;76.00;;;;;;4139363;28;20447;-84
2022/05/21 03:41:19;;;;;;;13.13;2.13;;;10.60;76.10;;;;;;4137019;28;20041;-84
2022/05/21 03:43:19;;;;;;;8.32;1.42;;;10.60;76.80;;;;;;4141618;28;20033;-84
2022/05/21 03:45:21;;;;;;;11.55;1.90;;;10.60;76.00;;;;;;4138434;28;20407;-84
2022/05/21 03:47:21;;;;;;;9.18;2.03;;;10.60;76.10;;;;;;4139758;28;20032;-84
2022/05/21 03:49:23;;;;;;;10.68;1.73;;;10.60;76.00;;;;;;4138896;28;20034;-83
2022/05/21 03:51:24;;;;;;;7.65;1.63;;;10.60;76.00;;;;;;4136996;28;20900;-84
2022/05/21 03:53:25;;;;;;;10.00;1.90;;;10.70;76.20;;;;;;4138938;28;20112;-84
2022/05/21 03:55:25;;;;;;;7.30;1.67;;;10.70;76.10;;;;;;4136366;28;20084;-85
2022/05/21 03:57:26;;;;;;;7.30;1.52;;;10.70;76.20;;;;;;4130876;28;20052;-85
2022/05/21 03:59:27;;;;;;;5.88;1.45;;;10.70;76.20;;;;;;4139949;28;20025;-84
2022/05/21 04:01:28;;;;;;;15.57;1.85;;;10.70;76.20;;;;;;4131701;28;20119;-85
2022/05/21 04:03:28;;;;;;;7.70;1.38;;;10.80;76.30;;;;;;4117913;28;20027;-85
2022/05/21 04:05:29;;;;;;;10.30;1.85;;;10.80;76.30;;;;;;4138018;28;20022;-85
2022/05/21 04:07:30;;;;;;;12.10;2.10;;;10.80;76.40;;;;;;4139076;28;20033;-84
2022/05/21 04:09:31;;;;;;;12.45;2.17;;;10.90;76.50;;;;;;4137602;28;20041;-85
2022/05/21 04:11:32;;;;;;;10.45;1.65;;;11.00;76.60;;;;;;4139931;28;20030;-85
2022/05/21 04:13:53;;;;;;;10.93;2.00;;;10.90;76.40;;;;;;4133132;28;20069;-85
2022/05/21 04:15:54;;;;;;;10.82;1.63;;;10.90;76.40;;;;;;4137462;28;20971;-85
2022/05/21 04:18:18;;;;;;;13.15;1.85;;;11.00;76.60;;;;;;4139365;28;20076;-84
2022/05/21 04:20:23;;;;;;;10.52;1.85;;;11.00;76.50;;;;;;4120673;28;20133;-84
2022/05/21 04:22:31;;;;;;;10.55;1.83;;;11.00;76.40;;;;;;4135079;28;20108;-84
2022/05/21 04:24:39;;;;;;;8.85;1.70;;;11.00;76.50;;;;;;4133939;28;20032;-85
2022/05/21 04:27:00;;;;;;;8.70;1.63;;;11.00;76.50;;;;;;4133721;28;20103;-85
2022/05/21 04:29:02;;;;;;;8.63;1.48;;;11.00;76.30;;;;;;4138052;28;20582;-84
2022/05/21 04:31:23;;;;;;;8.73;1.90;;;11.20;76.40;;;;;;4137299;28;20459;-85
2022/05/21 04:33:26;;;;;;;7.13;1.77;;;11.10;76.30;;;;;;4138428;28;20611;-84
2022/05/21 04:38:12;;;;;;;10.48;1.90;;;11.10;76.30;;;;;;4138666;28;20030;-84
2022/05/21 04:40:34;;;;;;;10.95;1.85;;;11.20;76.60;;;;;;4136167;28;20038;-85
2022/05/21 04:42:55;;;;;;;10.57;1.67;;;11.20;76.60;;;;;;4135569;28;20041;-85
2022/05/21 04:45:16;;;;;;;8.02;1.77;;;11.20;76.60;;;;;;4134193;28;20424;-85
2022/05/21 04:47:38;;;;;;;7.78;1.98;;;11.20;76.50;;;;;;4140814;28;20400;-84
2022/05/21 04:49:58;;;;;;;10.85;1.60;;;11.30;76.70;;;;;;4133155;28;20425;-84
2022/05/21 04:52:19;;;;;;;7.93;1.80;;;11.30;76.70;;;;;;4129160;28;20265;-84
2022/05/21 04:54:40;;;;;;;12.30;1.88;;;11.30;76.70;;;;;;4140002;28;20031;-84
2022/05/21 04:57:01;;;;;;;7.93;1.83;;;11.30;76.70;;;;;;4132808;28;20407;-84
2022/05/21 04:59:22;;;;;;;9.75;1.60;;;11.50;76.90;;;;;;4134332;28;20601;-82
2022/05/21 05:01:43;;;;;;;9.40;1.88;;;11.50;76.60;;;;;;4141566;28;20554;-84
2022/05/21 05:04:04;;;;;;;9.10;1.75;;;11.50;76.60;;;;;;4134567;28;22469;-84
2022/05/21 05:06:25;;;;;;;10.10;1.90;;;11.50;76.70;;;;;;4140332;28;20098;-86
2022/05/21 05:08:46;;;;;;;17.20;2.47;;;11.50;76.50;;;;;;4137967;28;20673;-83
2022/05/21 05:11:07;;;;;;;8.75;1.98;;;11.50;76.40;;;;;;4139295;28;20534;-85
2022/05/21 05:13:27;;;;;;;8.60;1.63;;;11.60;76.40;;;;;;4135592;28;20443;-85
2022/05/21 05:15:48;;;;;;;14.82;2.25;;;11.60;76.40;;;;;;4135801;28;20034;-84
2022/05/21 05:18:12;;;;;;;16.42;2.85;;;11.70;76.50;;;;;;4141865;28;20432;-84
2022/05/21 05:20:33;;;;;;;14.02;2.30;;;11.70;76.80;;;;;;4141106;28;20495;-84
2022/05/21 05:22:54;;;;;;;15.77;2.50;;;11.70;76.60;;;;;;4144461;28;20650;-84
2022/05/21 05:25:14;;;;;;;11.70;2.10;;;11.70;76.60;;;;;;4142107;28;20037;-84
2022/05/21 05:27:35;;;;;;;12.75;1.95;;;11.80;76.70;;;;;;4136102;28;20281;-84
2022/05/21 05:29:55;;;;;;;8.90;2.20;;;11.90;76.70;;;;;;4120384;28;20452;-84
2022/05/21 05:32:16;;;;;;;13.52;1.83;;;11.80;76.60;;;;;;4140357;28;20033;-84
2022/05/21 05:34:37;;;;;;;14.30;2.30;;;11.90;76.70;;;;;;4142082;28;20026;-85
2022/05/21 05:36:58;;;;;;;12.43;3.03;;;12.00;76.80;;;;;;4122532;28;20709;-85
2022/05/21 05:39:19;;;;;;;11.15;2.25;;;12.00;76.70;;;;;;4143310;28;20520;-82
2022/05/21 05:41:40;;;;;;;14.25;2.22;;;12.00;76.90;;;;;;4139482;28;20129;-84
2022/05/21 05:44:01;;;;;;;12.30;2.22;;;12.10;77.20;;;;;;4143413;28;20524;-85
2022/05/21 05:46:23;;;;;;;10.82;2.28;;;12.20;77.50;;;;;;4144728;28;22465;-85
2022/05/21 05:48:43;;;;;;;10.60;2.28;;;12.20;77.40;;;;;;4141581;28;20037;-84
2022/05/21 05:51:04;;;;;;;16.48;2.92;;;12.30;77.30;;;;;;4138747;28;20036;-84
2022/05/21 05:53:26;;;;;;;12.27;2.63;;;12.40;77.30;;;;;;4142269;28;20046;-86
2022/05/21 05:55:48;;;;;;;10.38;2.30;;;12.40;77.00;;;;;;4144593;28;20117;-84
2022/05/21 06:00:49;;;;;;;11.20;2.42;;;12.50;76.80;;;;;;4134529;28;20042;-84
2022/05/21 06:03:09;;;;;;;10.18;2.28;;;12.50;76.70;;;;;;4140590;28;20053;-85
2022/05/21 06:05:33;;;;;;;13.07;2.65;;;12.60;76.50;;;;;;4138166;28;20056;-84
2022/05/21 06:07:57;;;;;;;12.68;2.45;;;12.60;76.40;;;;;;4139438;28;20549;-84
2022/05/21 06:10:12;;;;;;;15.32;2.35;;;12.60;76.30;;;;;;4138142;28;20030;-84
2022/05/21 06:12:14;;;;;;;8.82;2.05;;;12.70;76.30;;;;;;4139896;28;20076;-87
2022/05/21 06:14:15;;;;;;;10.80;2.22;;;12.70;76.30;;;;;;4144427;28;20072;-84
2022/05/21 06:16:16;;;;;;;17.42;2.20;;;12.70;76.30;;;;;;4142087;28;20022;-84
2022/05/21 06:18:20;;;;;;;9.00;2.30;;;12.80;76.30;;;;;;4144931;28;20030;-84
2022/05/21 06:20:25;;;;;;;13.18;2.60;;;12.80;76.20;;;;;;4135207;28;20392;-86
2022/05/21 06:22:26;;;;;;;12.38;2.38;;;12.80;76.50;;;;;;4146481;28;20030;-85
2022/05/21 06:24:27;;;;;;;13.05;2.20;;;12.80;76.00;;;;;;4118084;28;20120;-85
2022/05/21 06:26:28;;;;;;;10.60;2.53;;;12.90;76.00;;;;;;4111973;28;20103;-84
2022/05/21 06:28:29;;;;;;;12.95;2.40;;;12.90;75.80;;;;;;4138586;28;20044;-85
2022/05/21 06:30:32;;;;;;;7.68;2.33;;;12.90;75.70;;;;;;4126605;28;20038;-83
2022/05/21 06:32:35;;;;;;;11.23;2.35;;;13.00;75.70;;;;;;4137546;28;20022;-84
2022/05/21 06:34:37;;;;;;;15.32;3.05;;;13.00;76.30;;;;;;4136883;28;20410;-85
2022/05/21 06:36:38;;;;;;;15.57;2.45;;;13.00;75.60;;;;;;4119833;28;20027;-85
2022/05/21 06:38:40;;;;;;;16.50;2.58;;;13.00;75.40;;;;;;4135541;28;20045;-84
2022/05/21 06:40:41;;;;;;;17.90;2.90;;;13.00;75.40;;;;;;4128707;28;20034;-87
2022/05/21 06:42:43;;;;;;;10.77;2.40;;;13.00;75.40;;;;;;4135435;28;20116;-85
2022/05/21 06:44:43;;;;;;;11.10;2.20;;;13.00;75.30;;;;;;4136002;28;20096;-86
2022/05/21 06:46:44;;;;;;;11.88;2.65;;;13.00;75.40;;;;;;4134926;28;20037;-85
2022/05/21 06:48:44;;;;;;;11.25;2.72;;;13.10;75.40;;;;;;4138392;28;20054;-84
2022/05/21 06:50:46;;;;;;;16.95;2.47;;;13.00;75.40;;;;;;4138300;28;20041;-83
2022/05/21 06:52:47;;;;;;;10.02;2.60;;;13.00;75.30;;;;;;4117333;28;20056;-83
2022/05/21 06:54:48;;;;;;;16.60;3.00;;;13.10;75.30;;;;;;4136267;28;20112;-82
2022/05/21 06:56:49;;;;;;;12.45;2.13;;;13.00;75.30;;;;;;4125470;28;20030;-82
2022/05/21 06:58:51;;;;;;;9.43;2.42;;;13.10;75.30;;;;;;4118639;28;20526;-83
2022/05/21 07:00:52;;;;;;;11.15;2.00;;;13.00;75.30;;;;;;4117680;28;20131;-83
2022/05/21 07:02:54;;;;;;;9.52;2.65;;;13.00;75.40;;;;;;4133941;28;20526;-84
2022/05/21 07:09:33;;;;;;;13.43;3.40;;;13.00;75.50;;;;;;4128961;28;20052;-85
2022/05/21 07:11:34;;;;;;;12.70;2.90;;;13.00;75.60;;;;;;4127800;28;20026;-85
2022/05/21 07:13:35;;;;;;;14.00;3.40;;;13.00;75.60;;;;;;4124174;28;20029;-87
2022/05/21 07:15:37;;;;;;;10.35;2.92;;;13.00;75.80;;;;;;4130510;28;20563;-84
2022/05/21 07:17:37;;;;;;;11.45;3.00;;;13.00;75.90;;;;;;4132531;28;20455;-84
2022/05/21 07:19:38;;;;;;;13.77;3.30;;;13.00;76.00;;;;;;4104335;28;20030;-85
2022/05/21 07:21:39;;;;;;;17.63;3.55;;;13.00;76.00;;;;;;4137347;28;20034;-84
2022/05/21 07:23:39;;;;;;;15.85;3.60;;;13.00;76.20;;;;;;4122488;28;20662;-85
2022/05/21 07:25:40;;;;;;;15.90;3.28;;;13.00;76.20;;;;;;4135361;28;20053;-85
2022/05/21 07:27:41;;;;;;;16.88;3.70;;;13.00;76.40;;;;;;4129926;28;20061;-85
2022/05/21 07:29:44;;;;;;;19.38;3.67;;;13.20;76.70;;;;;;4137355;28;20030;-85
2022/05/21 07:31:45;;;;;;;12.10;3.08;;;13.10;76.80;;;;;;4136534;28;21290;-85
2022/05/21 07:33:45;;;;;;;16.33;3.72;;;13.10;76.90;;;;;;4130952;28;20026;-85
2022/05/21 07:35:47;;;;;;;15.70;3.13;;;13.20;77.00;;;;;;4135253;28;20041;-84
2022/05/21 07:37:51;;;;;;;16.13;3.70;;;13.20;77.10;;;;;;4119392;28;20503;-84
2022/05/21 07:39:52;;;;;;;11.18;3.10;;;13.20;77.20;;;;;;4128080;28;20145;-84
2022/05/21 07:41:53;;;;;;;17.60;3.35;;;13.30;77.20;;;;;;4127405;28;20041;-84
2022/05/21 07:43:54;;;;;;;21.58;3.92;;;13.30;77.30;;;;;;4111969;28;20035;-82
2022/05/21 07:45:55;;;;;;;19.67;3.80;;;13.30;77.20;;;;;;4142772;28;20124;-83
2022/05/21 07:47:55;;;;;;;16.13;3.58;;;13.40;77.10;;;;;;4144637;28;20091;-83
2022/05/21 07:49:56;;;;;;;10.88;3.05;;;13.40;76.90;;;;;;4125410;28;20030;-83
2022/05/21 07:51:59;;;;;;;14.65;3.38;;;13.40;76.80;;;;;;4141531;28;20022;-83
2022/05/21 07:54:00;;;;;;;12.00;3.50;;;13.40;76.70;;;;;;4108561;28;20034;-83
2022/05/21 07:56:03;;;;;;;16.48;3.20;;;13.40;76.60;;;;;;4146745;28;20022;-83
2022/05/21 07:58:04;;;;;;;14.70;2.85;;;13.40;76.50;;;;;;4149689;28;20499;-82
2022/05/21 08:00:08;;;;;;;10.45;2.70;;;13.40;76.20;;;;;;4129322;28;20081;-83
2022/05/21 08:02:12;;;;;;;12.13;2.60;;;13.30;75.70;;;;;;4143837;28;20036;-83
2022/05/21 08:04:14;;;;;;;15.75;3.70;;;13.30;75.60;;;;;;4140510;28;21190;-82
2022/05/21 08:06:16;;;;;;;14.38;3.53;;;13.30;75.50;;;;;;4140961;28;20164;-83
2022/05/21 08:08:37;;;;;;;17.70;4.55;;;13.30;75.60;;;;;;4146673;28;20069;-83
2022/05/21 08:10:46;;;;;;;19.90;5.25;;;13.30;76.00;;;;;;4129073;28;20030;-82
2022/05/21 08:13:07;;;;;;;28.05;9.90;;;13.30;76.40;;;;;;4143307;28;20026;-84
2022/05/21 08:15:28;;;;;;;25.60;10.25;;;13.40;76.70;;;;;;4144664;28;20094;-83
2022/05/21 08:17:48;;;;;;;22.58;7.85;;;13.30;77.10;;;;;;4146048;28;20038;-82
2022/05/21 08:20:11;;;;;;;14.68;4.00;;;13.40;77.40;;;;;;4146190;28;20468;-83
2022/05/21 08:27:50;;;;;;;13.38;3.10;;;13.50;76.80;;;;;;4153244;28;20030;-83
2022/05/21 08:30:11;;;;;;;11.98;2.78;;;13.60;76.50;;;;;;4152527;28;20034;-82
2022/05/21 08:32:32;;;;;;;12.15;2.30;;;13.60;76.40;;;;;;4148704;28;20041;-82
2022/05/21 08:34:52;;;;;;;11.82;2.70;;;13.70;76.40;;;;;;4150778;28;20036;-82
2022/05/21 08:37:13;;;;;;;17.13;2.97;;;13.70;75.90;;;;;;4150697;28;20046;-83
2022/05/21 08:39:36;;;;;;;8.43;1.90;;;13.70;75.30;;;;;;4148483;28;20037;-83
2022/05/21 08:42:11;;;;;;;9.97;2.10;;;13.90;75.00;;;;;;4150476;28;20036;-83
2022/05/21 08:44:42;;;;;;;10.55;1.90;;;13.90;74.60;;;;;;4150639;28;20218;-83
2022/05/21 08:47:15;;;;;;;12.20;2.38;;;13.90;74.60;;;;;;4147896;28;20038;-83
2022/05/21 08:49:45;;;;;;;12.07;3.05;;;14.00;74.90;;;;;;4144797;28;20411;-83
2022/05/21 08:52:10;;;;;;;13.85;4.47;;;14.00;75.30;;;;;;4147683;28;20516;-84
2022/05/21 08:54:40;;;;;;;11.40;2.83;;;14.10;75.60;;;;;;4150299;28;20048;-84
2022/05/21 08:57:02;;;;;;;15.15;5.00;;;14.20;75.50;;;;;;4150110;28;20095;-84
2022/05/21 08:59:27;;;;;;;15.63;4.43;;;14.30;74.80;;;;;;4148187;28;20036;-83
2022/05/21 09:01:52;;;;;;;8.32;1.98;;;14.30;74.10;;;;;;4148364;28;20034;-83
2022/05/21 09:04:13;;;;;;;12.93;2.80;;;14.40;72.90;;;;;;4131690;28;20060;-83
2022/05/21 09:06:42;;;;;;;13.52;1.98;;;14.40;72.30;;;;;;4149038;28;20052;-82
2022/05/21 09:09:48;;;;;;;12.65;2.00;;;14.50;72.40;;;;;;4147926;28;20038;-83
2022/05/21 09:11:55;;;;;;;9.85;2.22;;;14.50;72.40;;;;;;4141674;28;20034;-85
2022/05/21 09:14:14;;;;;;;13.73;2.22;;;14.60;71.10;;;;;;4145781;28;20545;-84
2022/05/21 09:18:56;;;;;;;11.55;2.33;;;14.50;71.20;;;;;;4147218;28;20053;-82
2022/05/21 09:21:08;;;;;;;7.93;2.00;;;14.60;71.20;;;;;;4152311;28;20041;-83
2022/05/21 09:23:11;;;;;;;15.75;2.00;;;14.60;70.50;;;;;;4152111;28;20026;-82
2022/05/21 09:25:24;;;;;;;11.43;2.05;;;14.70;70.20;;;;;;4151903;28;20036;-84
2022/05/21 09:27:31;;;;;;;9.43;2.00;;;14.70;69.20;;;;;;4113939;28;20074;-83
2022/05/21 09:29:35;;;;;;;8.30;2.22;;;14.80;69.00;;;;;;4147834;28;20066;-82
2022/05/21 09:31:36;;;;;;;10.27;2.15;;;14.80;68.40;;;;;;4128983;28;20109;-83
2022/05/21 09:33:40;;;;;;;5.40;1.67;;;14.80;68.00;;;;;;4146528;28;20191;-84
2022/05/21 09:35:57;;;;;;;9.90;2.00;;;14.80;67.70;;;;;;4126260;28;20062;-83
2022/05/21 09:38:14;;;;;;;9.45;1.88;;;14.80;67.90;;;;;;4146322;28;20030;-82
2022/05/21 09:40:23;;;;;;;11.38;1.92;;;14.70;68.40;;;;;;4137743;28;20092;-83
2022/05/21 09:47:25;;;;;;;9.48;1.70;;;14.70;68.60;;;;;;4148613;28;20034;-82
2022/05/21 09:49:29;;;;;;;9.13;1.83;;;14.70;68.80;;;;;;4148519;28;20033;-83
2022/05/21 09:51:32;;;;;;;8.18;2.03;;;14.70;68.70;;;;;;4147235;28;20427;-85
2022/05/21 09:53:39;;;;;;;10.88;1.70;;;14.70;68.60;;;;;;4146716;28;20026;-82
2022/05/21 09:55:39;;;;;;;10.02;1.70;;;14.70;68.10;;;;;;4148389;28;20062;-84
2022/05/21 09:57:44;;;;;;;6.43;1.50;;;14.80;68.70;;;;;;4142114;28;20432;-82
2022/05/21 10:00:18;;;;;;;10.70;1.85;;;14.80;68.20;;;;;;4147586;28;20076;-81
2022/05/21 10:02:19;;;;;;;7.82;1.30;;;14.90;68.10;;;;;;4147068;28;20175;-83
2022/05/21 10:04:38;;;;;;;7.20;1.30;;;15.00;67.20;;;;;;4147217;28;20025;-83
2022/05/21 10:06:44;;;;;;;6.93;1.23;;;15.00;66.70;;;;;;4147758;28;20080;-83
2022/05/21 10:11:20;;;;;;;7.45;1.40;;;15.00;66.00;;;;;;4151564;28;20098;-84
2022/05/21 10:13:21;;;;;;;10.88;1.50;;;15.10;66.60;;;;;;4151108;28;20049;-83
2022/05/21 10:15:29;;;;;;;5.32;1.70;;;15.10;66.50;;;;;;4150165;28;20455;-83
2022/05/21 10:17:33;;;;;;;8.63;1.33;;;15.10;66.10;;;;;;4151401;28;20018;-83
2022/05/21 10:19:50;;;;;;;5.50;0.95;;;15.10;65.60;;;;;;4115108;28;20043;-82
2022/05/21 10:22:10;;;;;;;6.55;1.40;;;15.10;65.70;;;;;;4148895;28;20061;-83
2022/05/21 10:24:23;;;;;;;6.22;1.20;;;15.10;65.80;;;;;;4123852;28;20046;-85
2022/05/21 10:26:24;;;;;;;5.53;1.20;;;15.20;66.00;;;;;;4146078;28;20084;-85
2022/05/21 10:28:49;;;;;;;9.10;1.33;;;15.20;66.40;;;;;;4146837;28;20034;-84
2022/05/21 10:31:13;;;;;;;5.32;1.20;;;15.20;66.20;;;;;;4146276;28;20499;-84
2022/05/21 10:33:34;;;;;;;6.30;1.50;;;15.20;65.50;;;;;;4146073;28;20033;-84
2022/05/21 10:35:50;;;;;;;7.63;1.40;;;15.20;64.20;;;;;;4150835;28;20026;-82
2022/05/21 10:38:01;;;;;;;11.50;1.50;;;15.10;63.60;;;;;;4149961;28;20041;-83
2022/05/21 10:40:41;;;;;;;12.23;1.48;;;15.10;64.00;;;;;;4148423;28;20023;-83
2022/05/21 10:42:45;;;;;;;12.40;1.70;;;15.10;64.10;;;;;;4110918;28;20061;-85
2022/05/21 10:44:45;;;;;;;9.52;1.67;;;15.00;64.50;;;;;;4145199;28;20034;-84
2022/05/21 10:47:05;;;;;;;8.23;1.60;;;15.00;65.20;;;;;;4146755;28;20057;-86
2022/05/21 10:49:23;;;;;;;8.23;1.40;;;15.00;66.10;;;;;;4144058;28;20546;-83
2022/05/21 10:51:34;;;;;;;4.30;1.25;;;15.00;66.70;;;;;;4122116;28;20538;-85
2022/05/21 10:53:43;;;;;;;10.95;1.95;;;15.00;66.30;;;;;;4132866;28;20026;-83
2022/05/21 10:55:56;;;;;;;7.28;1.75;;;15.00;66.40;;;;;;4144703;28;20186;-85
2022/05/21 10:58:13;;;;;;;11.27;2.03;;;15.00;66.20;;;;;;4147539;28;20090;-83
2022/05/21 11:00:44;;;;;;;9.20;1.70;;;15.10;66.00;;;;;;4145616;28;20073;-82
2022/05/21 11:03:02;;;;;;;10.23;1.70;;;15.10;66.00;;;;;;4129482;28;20062;-84
2022/05/21 11:05:22;;;;;;;15.68;2.20;;;15.00;66.00;;;;;;4146846;28;20026;-85
2022/05/21 11:07:26;;;;;;;17.90;2.58;;;15.00;66.20;;;;;;4145996;28;20030;-82
2022/05/21 11:09:52;;;;;;;12.35;2.63;;;15.00;66.60;;;;;;4123872;28;20595;-84
2022/05/21 11:12:04;;;;;;;8.20;2.38;;;15.00;67.60;;;;;;4130245;28;20045;-85
2022/05/21 11:14:21;;;;;;;11.50;2.08;;;15.00;68.00;;;;;;4147500;28;20036;-86
2022/05/21 11:16:35;;;;;;;7.57;1.80;;;15.00;67.60;;;;;;4147032;28;20020;-83
2022/05/21 11:18:47;;;;;;;9.93;1.88;;;15.00;66.90;;;;;;4141470;28;20029;-84
2022/05/21 11:20:56;;;;;;;8.50;2.28;;;15.00;66.40;;;;;;4146621;28;20029;-82
2022/05/21 11:23:28;;;;;;;13.23;1.95;;;15.00;66.00;;;;;;4151130;28;21501;-84
2022/05/21 11:25:43;;;;;;;9.05;1.77;;;15.10;66.50;;;;;;4121705;28;20046;-83
2022/05/21 11:27:52;;;;;;;8.85;1.63;;;15.10;66.10;;;;;;4144785;28;20037;-83
2022/05/21 11:30:07;;;;;;;7.38;1.58;;;15.10;66.00;;;;;;4143499;28;20052;-84
2022/05/21 11:37:21;;;;;;;7.25;1.73;;;15.20;65.60;;;;;;4141584;28;20029;-83
2022/05/21 11:39:22;;;;;;;7.22;1.48;;;15.20;65.60;;;;;;4144697;28;20034;-84
2022/05/21 11:41:58;;;;;;;9.15;1.48;;;15.20;65.30;;;;;;4147072;28;20096;-84
2022/05/21 11:46:38;;;;;;;7.32;1.50;;;15.10;64.90;;;;;;4145132;28;20091;-84